sensor_id;sensor_type;location;lat;lon;timestamp;pressure;altitude;pressure_sealevel;temperature;humidity
72802;BME280;61891;55.818;37.084;2023-08-24T00:02:06;99045.50;;;15.98;66.79
72802;BME280;61891;55.818;37.084;2023-08-24T00:04:32;99060.72;;;16.04;66.93
72802;BME280;61891;55.818;37.084;2023-08-24T00:07:00;99047.56;;;15.96;67.01
72802;BME280;61891;55.818;37.084;2023-08-24T00:09:26;99067.91;;;16.04;66.90
72802;BME280;61891;55.818;37.084;2023-08-24T00:11:53;99068.72;;;16.04;66.67
72802;BME280;61891;55.818;37.084;2023-08-24T00:14:19;99068.72;;;16.04;66.80
72802;BME280;61891;55.818;37.084;2023-08-24T00:16:45;99064.44;;;15.97;67.05
72802;BME280;61891;55.818;37.084;2023-08-24T00:19:11;99064.00;;;16.00;66.87
72802;BME280;61891;55.818;37.084;2023-08-24T00:21:37;99065.84;;;15.99;67.15
72802;BME280;61891;55.818;37.084;2023-08-24T00:24:03;99059.91;;;15.91;67.15
72802;BME280;61891;55.818;37.084;2023-08-24T00:26:29;99033.63;;;15.74;67.19
72802;BME280;61891;55.818;37.084;2023-08-24T00:28:55;99061.53;;;15.98;66.90
72802;BME280;61891;55.818;37.084;2023-08-24T00:31:20;99042.66;;;15.80;67.27
72802;BME280;61891;55.818;37.084;2023-08-24T00:33:48;99042.47;;;15.75;67.52
72802;BME280;61891;55.818;37.084;2023-08-24T00:36:16;99031.59;;;15.70;67.56
72802;BME280;61891;55.818;37.084;2023-08-24T00:38:44;99074.31;;;15.96;67.65
72802;BME280;61891;55.818;37.084;2023-08-24T00:41:13;99066.91;;;15.92;67.65
72802;BME280;61891;55.818;37.084;2023-08-24T00:43:39;99061.97;;;15.89;67.56
72802;BME280;61891;55.818;37.084;2023-08-24T00:46:06;99071.00;;;15.94;67.40
72802;BME280;61891;55.818;37.084;2023-08-24T00:48:32;99044.31;;;15.81;67.47
72802;BME280;61891;55.818;37.084;2023-08-24T00:51:00;99054.78;;;15.76;67.69
72802;BME280;61891;55.818;37.084;2023-08-24T00:53:28;99036.31;;;15.68;67.99
72802;BME280;61891;55.818;37.084;2023-08-24T00:55:54;99064.44;;;15.84;67.84
72802;BME280;61891;55.818;37.084;2023-08-24T00:58:20;99057.06;;;15.79;67.98
72802;BME280;61891;55.818;37.084;2023-08-24T01:00:49;99042.47;;;15.68;67.74
72802;BME280;61891;55.818;37.084;2023-08-24T01:03:16;99049.66;;;15.74;67.99
72802;BME280;61891;55.818;37.084;2023-08-24T01:05:44;99058.69;;;15.80;67.94
72802;BME280;61891;55.818;37.084;2023-08-24T01:08:11;99061.38;;;15.80;68.01
72802;BME280;61891;55.818;37.084;2023-08-24T01:16:26;99071.22;;;15.86;68.38
72802;BME280;61891;55.818;37.084;2023-08-24T01:18:57;99069.16;;;15.88;68.27
72802;BME280;61891;55.818;37.084;2023-08-24T01:21:26;99064.44;;;15.90;68.18
72802;BME280;61891;55.818;37.084;2023-08-24T01:24:05;99062.59;;;15.91;68.14
72802;BME280;61891;55.818;37.084;2023-08-24T01:26:37;99042.66;;;15.80;68.04
72802;BME280;61891;55.818;37.084;2023-08-24T01:29:04;99061.16;;;15.88;68.18
72802;BME280;61891;55.818;37.084;2023-08-24T01:31:31;99064.03;;;15.87;68.06
72802;BME280;61891;55.818;37.084;2023-08-24T01:33:56;99066.72;;;15.87;68.50
72802;BME280;61891;55.818;37.084;2023-08-24T01:36:22;99055.41;;;15.78;68.48
72802;BME280;61891;55.818;37.084;2023-08-24T01:38:59;99073.09;;;15.86;68.79
72802;BME280;61891;55.818;37.084;2023-08-24T01:41:35;99021.06;;;15.55;68.44
72802;BME280;61891;55.818;37.084;2023-08-24T01:44:06;99049.25;;;15.77;68.21
72802;BME280;61891;55.818;37.084;2023-08-24T01:46:34;99072.66;;;15.89;68.00
72802;BME280;61891;55.818;37.084;2023-08-24T01:49:01;99068.97;;;15.90;68.42
72802;BME280;61891;55.818;37.084;2023-08-24T01:51:28;99065.69;;;15.88;68.04
72802;BME280;61891;55.818;37.084;2023-08-24T01:53:56;99065.28;;;15.84;68.10
72802;BME280;61891;55.818;37.084;2023-08-24T01:56:23;99066.91;;;15.85;68.25
72802;BME280;61891;55.818;37.084;2023-08-24T01:58:48;99052.53;;;15.73;68.48
72802;BME280;61891;55.818;37.084;2023-08-24T02:01:14;99066.50;;;15.82;68.58
72802;BME280;61891;55.818;37.084;2023-08-24T02:03:40;99060.97;;;15.76;68.61
72802;BME280;61891;55.818;37.084;2023-08-24T02:06:06;99067.34;;;15.82;68.69
72802;BME280;61891;55.818;37.084;2023-08-24T02:08:32;99052.53;;;15.73;68.66
72802;BME280;61891;55.818;37.084;2023-08-24T02:10:58;99062.00;;;15.75;68.66
72802;BME280;61891;55.818;37.084;2023-08-24T02:13:24;99074.53;;;15.82;68.50
72802;BME280;61891;55.818;37.084;2023-08-24T02:15:50;99064.66;;;15.75;68.17
72802;BME280;61891;55.818;37.084;2023-08-24T02:18:16;99080.28;;;15.85;68.29
72802;BME280;61891;55.818;37.084;2023-08-24T02:20:42;99072.06;;;15.80;68.79
72802;BME280;61891;55.818;37.084;2023-08-24T02:23:07;99054.19;;;15.74;68.33
72802;BME280;61891;55.818;37.084;2023-08-24T02:25:33;99078.00;;;15.89;68.36
72802;BME280;61891;55.818;37.084;2023-08-24T02:27:59;99063.63;;;15.83;68.57
72802;BME280;61891;55.818;37.084;2023-08-24T02:30:25;99078.00;;;15.89;68.69
72802;BME280;61891;55.818;37.084;2023-08-24T02:32:51;99074.50;;;15.88;69.23
72802;BME280;61891;55.818;37.084;2023-08-24T02:35:17;99080.91;;;15.87;69.00
72802;BME280;61891;55.818;37.084;2023-08-24T02:37:43;99083.34;;;15.89;68.60
72802;BME280;61891;55.818;37.084;2023-08-24T02:40:11;99079.66;;;15.90;68.66
72802;BME280;61891;55.818;37.084;2023-08-24T02:42:37;99091.16;;;15.90;68.96
72802;BME280;61891;55.818;37.084;2023-08-24T02:45:03;99084.19;;;15.89;68.45
72802;BME280;61891;55.818;37.084;2023-08-24T02:47:32;99065.06;;;15.79;68.64
72802;BME280;61891;55.818;37.084;2023-08-24T02:49:58;99078.00;;;15.89;68.77
72802;BME280;61891;55.818;37.084;2023-08-24T02:52:24;99078.84;;;15.89;68.97
72802;BME280;61891;55.818;37.084;2023-08-24T02:54:50;99022.13;;;15.61;68.87
72802;BME280;61891;55.818;37.084;2023-08-24T02:57:16;99050.28;;;15.76;68.82
72802;BME280;61891;55.818;37.084;2023-08-24T02:59:42;99082.31;;;15.96;68.58
72802;BME280;61891;55.818;37.084;2023-08-24T03:02:10;99086.63;;;15.97;68.60
72802;BME280;61891;55.818;37.084;2023-08-24T03:04:36;99089.09;;;15.99;68.75
72802;BME280;61891;55.818;37.084;2023-08-24T03:07:02;99084.56;;;15.99;68.97
72802;BME280;61891;55.818;37.084;2023-08-24T03:09:30;99087.03;;;16.01;68.74
72802;BME280;61891;55.818;37.084;2023-08-24T03:11:57;99074.31;;;15.96;68.71
72802;BME280;61891;55.818;37.084;2023-08-24T03:14:22;99087.66;;;16.03;68.58
72802;BME280;61891;55.818;37.084;2023-08-24T03:16:48;99060.53;;;15.86;68.67
72802;BME280;61891;55.818;37.084;2023-08-24T03:19:16;99082.94;;;15.98;68.19
72802;BME280;61891;55.818;37.084;2023-08-24T03:21:44;99094.44;;;16.05;68.52
72802;BME280;61891;55.818;37.084;2023-08-24T03:24:09;99094.44;;;16.05;69.21
72802;BME280;61891;55.818;37.084;2023-08-24T03:26:35;99076.97;;;15.96;68.74
72802;BME280;61891;55.818;37.084;2023-08-24T03:29:01;99098.13;;;16.11;68.38
72802;BME280;61891;55.818;37.084;2023-08-24T03:31:27;99104.91;;;16.14;68.30
72802;BME280;61891;55.818;37.084;2023-08-24T03:33:53;99106.34;;;16.16;68.31
72802;BME280;61891;55.818;37.084;2023-08-24T03:36:19;99104.28;;;16.18;69.20
72802;BME280;61891;55.818;37.084;2023-08-24T03:38:45;99103.03;;;16.21;68.36
72802;BME280;61891;55.818;37.084;2023-08-24T03:41:11;99098.91;;;16.25;68.69
72802;BME280;61891;55.818;37.084;2023-08-24T03:43:37;99098.28;;;16.29;68.53
72802;BME280;61891;55.818;37.084;2023-08-24T03:46:04;99109.19;;;16.34;68.27
72802;BME280;61891;55.818;37.084;2023-08-24T03:48:32;99084.50;;;16.26;68.21
72802;BME280;61891;55.818;37.084;2023-08-24T03:50:58;99074.44;;;16.21;68.11
72802;BME280;61891;55.818;37.084;2023-08-24T03:53:25;99110.78;;;16.49;68.24
72802;BME280;61891;55.818;37.084;2023-08-24T03:55:52;99112.22;;;16.51;67.77
72802;BME280;61891;55.818;37.084;2023-08-24T03:58:20;99104.00;;;16.46;67.68
72802;BME280;61891;55.818;37.084;2023-08-24T04:00:46;99079.34;;;16.37;67.77
72802;BME280;61891;55.818;37.084;2023-08-24T04:03:12;99106.88;;;16.51;67.80
72802;BME280;61891;55.818;37.084;2023-08-24T04:05:38;99098.84;;;16.51;67.81
72802;BME280;61891;55.818;37.084;2023-08-24T04:08:05;99082.41;;;16.41;67.75
72802;BME280;61891;55.818;37.084;2023-08-24T04:10:30;99092.66;;;16.51;67.66
72802;BME280;61891;55.818;37.084;2023-08-24T04:12:58;99105.16;;;16.63;67.76
72802;BME280;61891;55.818;37.084;2023-08-24T04:15:24;99109.69;;;16.69;67.71
72802;BME280;61891;55.818;37.084;2023-08-24T04:17:50;99102.28;;;16.71;67.65
72802;BME280;61891;55.818;37.084;2023-08-24T04:20:16;99103.50;;;16.75;67.18
72802;BME280;61891;55.818;37.084;2023-08-24T04:22:42;99099.78;;;16.77;67.35
72802;BME280;61891;55.818;37.084;2023-08-24T04:25:08;99109.22;;;16.86;67.00
72802;BME280;61891;55.818;37.084;2023-08-24T04:27:35;99108.56;;;16.90;67.44
72802;BME280;61891;55.818;37.084;2023-08-24T04:30:02;99120.06;;;16.97;66.85
72802;BME280;61891;55.818;37.084;2023-08-24T04:32:33;99115.72;;;17.03;66.64
72802;BME280;61891;55.818;37.084;2023-08-24T04:35:01;99113.22;;;17.08;66.78
72802;BME280;61891;55.818;37.084;2023-08-24T04:37:30;99113.41;;;17.13;66.52
72802;BME280;61891;55.818;37.084;2023-08-24T04:39:56;99115.03;;;17.14;66.24
72802;BME280;61891;55.818;37.084;2023-08-24T04:42:21;99116.44;;;17.23;66.58
72802;BME280;61891;55.818;37.084;2023-08-24T04:44:47;99112.75;;;17.18;66.17
72802;BME280;61891;55.818;37.084;2023-08-24T04:47:13;99118.88;;;17.25;66.39
72802;BME280;61891;55.818;37.084;2023-08-24T04:49:39;99117.03;;;17.25;66.09
72802;BME280;61891;55.818;37.084;2023-08-24T04:52:05;99109.00;;;17.25;65.94
72802;BME280;61891;55.818;37.084;2023-08-24T04:54:30;99111.66;;;17.25;65.75
72802;BME280;61891;55.818;37.084;2023-08-24T04:56:56;99123.38;;;17.31;65.93
72802;BME280;61891;55.818;37.084;2023-08-24T04:59:22;99120.50;;;17.32;66.01
72802;BME280;61891;55.818;37.084;2023-08-24T05:01:47;99088.03;;;17.16;66.15
72802;BME280;61891;55.818;37.084;2023-08-24T05:04:13;99114.91;;;17.34;65.74
72802;BME280;61891;55.818;37.084;2023-08-24T05:06:39;99109.13;;;17.37;65.51
72802;BME280;61891;55.818;37.084;2023-08-24T05:09:05;99116.06;;;17.45;65.77
72802;BME280;61891;55.818;37.084;2023-08-24T05:11:31;99116.25;;;17.50;65.49
72802;BME280;61891;55.818;37.084;2023-08-24T05:13:56;99119.09;;;17.55;65.73
72802;BME280;61891;55.818;37.084;2023-08-24T05:16:23;99104.91;;;17.48;65.59
72802;BME280;61891;55.818;37.084;2023-08-24T05:18:48;99102.84;;;17.50;65.25
72802;BME280;61891;55.818;37.084;2023-08-24T05:21:14;99108.53;;;17.60;65.40
72802;BME280;61891;55.818;37.084;2023-08-24T05:23:40;99118.00;;;17.62;65.29
72802;BME280;61891;55.818;37.084;2023-08-24T05:26:06;99107.06;;;17.64;65.37
72802;BME280;61891;55.818;37.084;2023-08-24T05:28:32;99092.91;;;17.57;65.33
72802;BME280;61891;55.818;37.084;2023-08-24T05:30:58;99104.38;;;17.64;64.64
72802;BME280;61891;55.818;37.084;2023-08-24T05:33:25;99096.56;;;17.62;64.64
72802;BME280;61891;55.818;37.084;2023-08-24T05:35:51;99090.97;;;17.64;64.93
72802;BME280;61891;55.818;37.084;2023-08-24T05:38:18;99108.63;;;17.78;64.66
72802;BME280;61891;55.818;37.084;2023-08-24T05:40:47;99104.47;;;17.82;64.62
72802;BME280;61891;55.818;37.084;2023-08-24T05:43:13;99106.25;;;17.88;64.33
72802;BME280;61891;55.818;37.084;2023-08-24T05:45:39;99110.91;;;17.99;64.60
72802;BME280;61891;55.818;37.084;2023-08-24T05:48:07;99115.97;;;18.08;64.29
72802;BME280;61891;55.818;37.084;2023-08-24T05:50:33;99115.09;;;18.14;63.99
72802;BME280;61891;55.818;37.084;2023-08-24T05:53:01;99114.16;;;18.26;64.01
72802;BME280;61891;55.818;37.084;2023-08-24T05:55:27;99080.81;;;18.16;63.48
72802;BME280;61891;55.818;37.084;2023-08-24T05:57:53;99116.69;;;18.40;63.28
72802;BME280;61891;55.818;37.084;2023-08-24T06:00:19;99116.91;;;18.38;63.14
72802;BME280;61891;55.818;37.084;2023-08-24T06:02:45;99127.41;;;18.40;62.99
72802;BME280;61891;55.818;37.084;2023-08-24T06:05:11;99110.88;;;18.24;63.46
72802;BME280;61891;55.818;37.084;2023-08-24T06:07:37;99134.34;;;18.29;62.99
72802;BME280;61891;55.818;37.084;2023-08-24T06:10:03;99126.06;;;18.12;63.69
72802;BME280;61891;55.818;37.084;2023-08-24T06:12:33;99136.78;;;18.12;63.77
72802;BME280;61891;55.818;37.084;2023-08-24T06:14:58;99119.84;;;17.93;63.89
72802;BME280;61891;55.818;37.084;2023-08-24T06:17:31;99142.88;;;18.01;63.74
72802;BME280;61891;55.818;37.084;2023-08-24T06:19:57;99141.06;;;17.95;64.15
72802;BME280;61891;55.818;37.084;2023-08-24T06:22:23;99112.19;;;17.72;64.23
72802;BME280;61891;55.818;37.084;2023-08-24T06:24:48;99139.25;;;17.89;64.31
72802;BME280;61891;55.818;37.084;2023-08-24T06:27:14;99128.00;;;17.80;64.42
72802;BME280;61891;55.818;37.084;2023-08-24T06:29:43;99145.59;;;17.94;64.45
72802;BME280;61891;55.818;37.084;2023-08-24T06:32:09;99135.31;;;17.91;64.34
72802;BME280;61891;55.818;37.084;2023-08-24T06:34:35;99144.94;;;17.99;64.34
72802;BME280;61891;55.818;37.084;2023-08-24T06:37:01;99150.91;;;18.01;64.26
72802;BME280;61891;55.818;37.084;2023-08-24T06:39:28;99140.84;;;17.96;64.38
72802;BME280;61891;55.818;37.084;2023-08-24T06:41:54;99146.38;;;18.01;64.75
72802;BME280;61891;55.818;37.084;2023-08-24T06:44:24;99151.50;;;18.03;64.73
72802;BME280;61891;55.818;37.084;2023-08-24T06:46:50;99140.69;;;17.91;65.02
72802;BME280;61891;55.818;37.084;2023-08-24T06:49:16;99161.25;;;17.97;64.94
72802;BME280;61891;55.818;37.084;2023-08-24T06:51:41;99139.97;;;17.78;65.26
72802;BME280;61891;55.818;37.084;2023-08-24T06:54:07;99146.00;;;17.73;65.34
72802;BME280;61891;55.818;37.084;2023-08-24T06:56:33;99167.59;;;17.78;65.21
72802;BME280;61891;55.818;37.084;2023-08-24T06:58:59;99164.75;;;17.73;65.25
72802;BME280;61891;55.818;37.084;2023-08-24T07:01:24;99151.84;;;17.57;65.57
72802;BME280;61891;55.818;37.084;2023-08-24T07:03:51;99166.44;;;17.67;65.39
72802;BME280;61891;55.818;37.084;2023-08-24T07:06:17;99152.06;;;17.55;65.25
72802;BME280;61891;55.818;37.084;2023-08-24T07:08:43;99162.75;;;17.62;65.03
72802;BME280;61891;55.818;37.084;2023-08-24T07:11:09;99167.06;;;17.63;65.13
72802;BME280;61891;55.818;37.084;2023-08-24T07:13:34;99160.50;;;17.59;65.34
72802;BME280;61891;55.818;37.084;2023-08-24T07:16:00;99162.16;;;17.60;65.27
72802;BME280;61891;55.818;37.084;2023-08-24T07:18:28;99176.97;;;17.69;64.96
72802;BME280;61891;55.818;37.084;2023-08-24T07:20:54;99179.84;;;17.67;65.41
72802;BME280;61891;55.818;37.084;2023-08-24T07:23:20;99164.66;;;17.55;65.13
72802;BME280;61891;55.818;37.084;2023-08-24T07:25:46;99165.53;;;17.49;65.07
72802;BME280;61891;55.818;37.084;2023-08-24T07:28:11;99176.63;;;17.52;65.01
72802;BME280;61891;55.818;37.084;2023-08-24T07:30:37;99185.06;;;17.56;65.36
72802;BME280;61891;55.818;37.084;2023-08-24T07:33:03;99183.41;;;17.55;65.39
72802;BME280;61891;55.818;37.084;2023-08-24T07:35:29;99189.59;;;17.55;65.26
72802;BME280;61891;55.818;37.084;2023-08-24T07:37:56;99178.69;;;17.50;65.22
72802;BME280;61891;55.818;37.084;2023-08-24T07:40:22;99187.91;;;17.61;65.01
72802;BME280;61891;55.818;37.084;2023-08-24T07:42:49;99189.56;;;17.62;65.36
72802;BME280;61891;55.818;37.084;2023-08-24T07:45:16;99193.28;;;17.61;65.17
72802;BME280;61891;55.818;37.084;2023-08-24T07:47:43;99198.84;;;17.66;65.56
72802;BME280;61891;55.818;37.084;2023-08-24T07:50:09;99187.69;;;17.69;64.98
72802;BME280;61891;55.818;37.084;2023-08-24T07:52:37;99182.31;;;17.69;64.95
72802;BME280;61891;55.818;37.084;2023-08-24T07:55:04;99176.31;;;17.74;64.83
72802;BME280;61891;55.818;37.084;2023-08-24T07:57:30;99173.63;;;17.74;64.34
72802;BME280;61891;55.818;37.084;2023-08-24T07:59:59;99195.97;;;17.92;64.22
72802;BME280;61891;55.818;37.084;2023-08-24T08:02:25;99197.59;;;17.93;64.06
72802;BME280;61891;55.818;37.084;2023-08-24T08:04:50;99190.88;;;17.84;64.13
72802;BME280;61891;55.818;37.084;2023-08-24T08:07:16;99200.56;;;17.85;64.28
72802;BME280;61891;55.818;37.084;2023-08-24T08:09:42;99197.09;;;17.78;63.91
72802;BME280;61891;55.818;37.084;2023-08-24T08:12:08;99183.09;;;17.76;63.81
72802;BME280;61891;55.818;37.084;2023-08-24T08:14:34;99189.84;;;17.85;63.59
72802;BME280;61891;55.818;37.084;2023-08-24T08:17:00;99216.53;;;17.98;64.14
72802;BME280;61891;55.818;37.084;2023-08-24T08:19:25;99208.88;;;18.02;63.99
72802;BME280;61891;55.818;37.084;2023-08-24T08:21:53;99191.16;;;18.01;63.57
72802;BME280;61891;55.818;37.084;2023-08-24T08:24:19;99200.88;;;18.20;63.36
72802;BME280;61891;55.818;37.084;2023-08-24T08:26:45;99199.88;;;18.40;62.83
72802;BME280;61891;55.818;37.084;2023-08-24T08:29:11;99200.50;;;18.60;63.06
72802;BME280;61891;55.818;37.084;2023-08-24T08:31:36;99184.13;;;18.68;62.78
72802;BME280;61891;55.818;37.084;2023-08-24T08:34:02;99206.66;;;19.04;62.07
72802;BME280;61891;55.818;37.084;2023-08-24T08:36:30;99202.22;;;19.27;61.77
72802;BME280;61891;55.818;37.084;2023-08-24T08:38:58;99200.44;;;19.51;61.20
72802;BME280;61891;55.818;37.084;2023-08-24T08:41:27;99164.47;;;19.52;60.87
72802;BME280;61891;55.818;37.084;2023-08-24T08:43:55;99202.31;;;19.81;60.77
72802;BME280;61891;55.818;37.084;2023-08-24T08:46:21;99196.81;;;19.87;60.25
72802;BME280;61891;55.818;37.084;2023-08-24T08:48:48;99197.41;;;19.89;60.09
72802;BME280;61891;55.818;37.084;2023-08-24T08:51:16;99208.16;;;19.89;59.83
72802;BME280;61891;55.818;37.084;2023-08-24T08:53:43;99190.97;;;19.90;59.96
72802;BME280;61891;55.818;37.084;2023-08-24T08:56:09;99206.19;;;19.96;60.03
72802;BME280;61891;55.818;37.084;2023-08-24T08:58:36;99141.75;;;19.48;59.78
72802;BME280;61891;55.818;37.084;2023-08-24T09:01:05;99202.19;;;19.76;59.47
72802;BME280;61891;55.818;37.084;2023-08-24T09:03:32;99198.88;;;19.62;59.86
72802;BME280;61891;55.818;37.084;2023-08-24T09:05:58;99212.31;;;19.62;59.79
72802;BME280;61891;55.818;37.084;2023-08-24T09:08:25;99206.50;;;19.47;59.57
72802;BME280;61891;55.818;37.084;2023-08-24T09:10:51;99214.34;;;19.48;59.92
72802;BME280;61891;55.818;37.084;2023-08-24T09:13:17;99210.53;;;19.56;59.46
72802;BME280;61891;55.818;37.084;2023-08-24T09:15:43;99219.09;;;19.64;59.44
72802;BME280;61891;55.818;37.084;2023-08-24T09:18:09;99221.56;;;19.66;59.57
72802;BME280;61891;55.818;37.084;2023-08-24T09:20:35;99219.91;;;19.65;59.46
72802;BME280;61891;55.818;37.084;2023-08-24T09:23:01;99225.03;;;19.55;59.65
72802;BME280;61891;55.818;37.084;2023-08-24T09:25:27;99184.41;;;19.15;59.77
72802;BME280;61891;55.818;37.084;2023-08-24T09:27:57;99208.13;;;19.18;59.38
72802;BME280;61891;55.818;37.084;2023-08-24T09:30:28;99234.69;;;19.26;59.98
72802;BME280;61891;55.818;37.084;2023-08-24T09:32:54;99220.00;;;19.10;59.91
72802;BME280;61891;55.818;37.084;2023-08-24T09:35:20;99237.47;;;19.19;59.36
72802;BME280;61891;55.818;37.084;2023-08-24T09:37:49;99236.09;;;19.28;59.74
72802;BME280;61891;55.818;37.084;2023-08-24T09:40:15;99217.13;;;19.42;59.36
72802;BME280;61891;55.818;37.084;2023-08-24T09:42:42;99165.22;;;19.41;58.91
72802;BME280;61891;55.818;37.084;2023-08-24T09:45:12;99221.28;;;19.98;58.70
72802;BME280;61891;55.818;37.084;2023-08-24T09:47:45;99210.28;;;19.99;57.85
72802;BME280;61891;55.818;37.084;2023-08-24T09:50:11;99225.19;;;20.13;57.86
72802;BME280;61891;55.818;37.084;2023-08-24T09:52:37;99220.25;;;20.10;57.99
72802;BME280;61891;55.818;37.084;2023-08-24T09:55:08;99216.97;;;20.08;57.42
72802;BME280;61891;55.818;37.084;2023-08-24T09:57:39;99228.13;;;20.23;57.24
72802;BME280;61891;55.818;37.084;2023-08-24T10:00:09;99230.00;;;20.35;57.42
72802;BME280;61891;55.818;37.084;2023-08-24T10:02:37;99229.56;;;20.49;56.77
72802;BME280;61891;55.818;37.084;2023-08-24T10:05:07;99210.81;;;20.54;57.03
72802;BME280;61891;55.818;37.084;2023-08-24T10:07:35;99225.91;;;20.67;57.05
72802;BME280;61891;55.818;37.084;2023-08-24T10:10:03;99220.41;;;20.62;56.13
72802;BME280;61891;55.818;37.084;2023-08-24T10:12:41;99225.94;;;20.55;55.69
72802;BME280;61891;55.818;37.084;2023-08-24T10:15:09;99230.16;;;20.51;56.41
72802;BME280;61891;55.818;37.084;2023-08-24T10:17:39;99228.75;;;20.49;56.44
72802;BME280;61891;55.818;37.084;2023-08-24T10:20:06;99228.50;;;20.50;56.35
72802;BME280;61891;55.818;37.084;2023-08-24T10:22:35;99228.38;;;20.57;56.19
72802;BME280;61891;55.818;37.084;2023-08-24T10:25:02;99230.59;;;20.72;56.10
72802;BME280;61891;55.818;37.084;2023-08-24T10:27:31;99226.38;;;20.99;55.54
72802;BME280;61891;55.818;37.084;2023-08-24T10:29:57;99226.53;;;21.33;55.04
72802;BME280;61891;55.818;37.084;2023-08-24T10:32:25;99227.66;;;21.48;54.26
72802;BME280;61891;55.818;37.084;2023-08-24T10:34:52;99223.38;;;21.36;54.29
72802;BME280;61891;55.818;37.084;2023-08-24T10:37:22;99231.25;;;21.14;53.79
72802;BME280;61891;55.818;37.084;2023-08-24T10:39:50;99227.91;;;20.95;55.15
72802;BME280;61891;55.818;37.084;2023-08-24T10:42:15;99228.59;;;20.79;54.22
72802;BME280;61891;55.818;37.084;2023-08-24T10:44:45;99233.31;;;20.60;55.04
72802;BME280;61891;55.818;37.084;2023-08-24T10:47:17;99235.72;;;20.38;55.23
72802;BME280;61891;55.818;37.084;2023-08-24T10:49:56;99204.53;;;19.84;55.90
72802;BME280;61891;55.818;37.084;2023-08-24T10:52:24;99224.38;;;19.71;56.37
72802;BME280;61891;55.818;37.084;2023-08-24T10:54:53;99245.03;;;19.59;56.42
72802;BME280;61891;55.818;37.084;2023-08-24T10:57:21;99249.38;;;19.42;56.82
72802;BME280;61891;55.818;37.084;2023-08-24T11:00:06;99222.53;;;19.05;57.10
72802;BME280;61891;55.818;37.084;2023-08-24T11:05:15;99261.88;;;19.18;57.40
72802;BME280;61891;55.818;37.084;2023-08-24T11:07:57;99263.88;;;19.22;57.24
72802;BME280;61891;55.818;37.084;2023-08-24T11:10:25;99250.91;;;19.19;57.42
72802;BME280;61891;55.818;37.084;2023-08-24T11:15:30;99266.25;;;19.49;57.04
72802;BME280;61891;55.818;37.084;2023-08-24T11:18:20;99258.44;;;19.77;56.18
72802;BME280;61891;55.818;37.084;2023-08-24T11:23:27;99265.75;;;20.65;55.56
72802;BME280;61891;55.818;37.084;2023-08-24T11:25:54;99261.44;;;20.87;54.13
72802;BME280;61891;55.818;37.084;2023-08-24T11:28:24;99260.47;;;20.94;54.75
72802;BME280;61891;55.818;37.084;2023-08-24T11:30:52;99264.22;;;20.92;54.32
72802;BME280;61891;55.818;37.084;2023-08-24T11:33:38;99263.88;;;20.89;53.41
72802;BME280;61891;55.818;37.084;2023-08-24T11:36:04;99260.03;;;20.85;53.96
72802;BME280;61891;55.818;37.084;2023-08-24T11:38:41;99260.50;;;20.82;53.69
72802;BME280;61891;55.818;37.084;2023-08-24T11:41:12;99266.31;;;20.79;54.03
72802;BME280;61891;55.818;37.084;2023-08-24T11:43:38;99262.47;;;20.75;54.06
72802;BME280;61891;55.818;37.084;2023-08-24T11:46:04;99266.44;;;20.72;53.63
72802;BME280;61891;55.818;37.084;2023-08-24T11:48:30;99267.97;;;20.68;53.21
72802;BME280;61891;55.818;37.084;2023-08-24T11:50:59;99263.88;;;20.66;53.38
72802;BME280;61891;55.818;37.084;2023-08-24T11:53:26;99250.16;;;20.55;53.56
72802;BME280;61891;55.818;37.084;2023-08-24T11:55:52;99247.13;;;20.52;53.82
72802;BME280;61891;55.818;37.084;2023-08-24T11:58:19;99268.31;;;20.72;53.65
72802;BME280;61891;55.818;37.084;2023-08-24T12:00:45;99267.84;;;20.75;53.34
72802;BME280;61891;55.818;37.084;2023-08-24T12:03:12;99264.09;;;20.76;53.70
72802;BME280;61891;55.818;37.084;2023-08-24T12:05:39;99269.97;;;20.73;53.17
72802;BME280;61891;55.818;37.084;2023-08-24T12:08:04;99271.00;;;20.72;53.01
72802;BME280;61891;55.818;37.084;2023-08-24T12:10:30;99252.97;;;20.60;53.02
72802;BME280;61891;55.818;37.084;2023-08-24T12:13:06;99270.44;;;20.70;52.63
72802;BME280;61891;55.818;37.084;2023-08-24T12:15:36;99270.91;;;20.67;52.90
72802;BME280;61891;55.818;37.084;2023-08-24T12:18:12;99274.28;;;20.62;52.63
72802;BME280;61891;55.818;37.084;2023-08-24T12:20:40;99273.94;;;20.58;52.29
72802;BME280;61891;55.818;37.084;2023-08-24T12:23:07;99249.22;;;20.50;52.90
72802;BME280;61891;55.818;37.084;2023-08-24T12:25:42;99268.19;;;20.67;52.03
72802;BME280;61891;55.818;37.084;2023-08-24T12:28:15;99233.53;;;20.58;52.08
72802;BME280;61891;55.818;37.084;2023-08-24T12:30:52;99262.25;;;20.88;52.19
72802;BME280;61891;55.818;37.084;2023-08-24T12:33:28;99264.22;;;21.04;51.52
72802;BME280;61891;55.818;37.084;2023-08-24T12:35:55;99262.91;;;21.18;52.11
72802;BME280;61891;55.818;37.084;2023-08-24T12:38:22;99261.91;;;21.48;51.50
72802;BME280;61891;55.818;37.084;2023-08-24T12:40:50;99259.44;;;22.37;50.48
72802;BME280;61891;55.818;37.084;2023-08-24T12:43:15;99240.47;;;24.01;48.35
72802;BME280;61891;55.818;37.084;2023-08-24T12:45:42;99239.31;;;24.61;47.43
72802;BME280;61891;55.818;37.084;2023-08-24T12:48:08;99249.19;;;25.30;47.17
72802;BME280;61891;55.818;37.084;2023-08-24T12:50:35;99265.38;;;25.10;46.52
72802;BME280;61891;55.818;37.084;2023-08-24T12:53:01;99247.75;;;24.65;46.48
72802;BME280;61891;55.818;37.084;2023-08-24T12:55:32;99254.53;;;24.30;46.16
72802;BME280;61891;55.818;37.084;2023-08-24T12:57:58;99267.53;;;24.28;46.00
72802;BME280;61891;55.818;37.084;2023-08-24T13:00:24;99266.25;;;24.36;46.34
72802;BME280;61891;55.818;37.084;2023-08-24T13:02:50;99271.97;;;24.82;45.53
72802;BME280;61891;55.818;37.084;2023-08-24T13:05:17;99259.50;;;25.28;44.93